aviador You're here:

KPTB Decoded Metar

PETERSBURG in VA, USA
Report Time2018-06-24 00:35:00
UTC Time2018-06-24 01:00:38
Flight Rules vfr VFR
Wind240° at 03 kt
W.Decomp.*RWY 23: 2.9 kt HW 0.9 kt RCW
RWY 32: 0.9 kt HW 2.9 kt LCW
W.Rank240° ranks 10
Current wind is below 240° avg. (6.5)
Visibility9999 m
Phenomena:N/A
Clouds:Broken 120 Hf
Expected CloudBase > 800 ft AGL from Temp-Dew spread
Ceiling12,000 ft
Temp25°C (ISA +10)
Dew Point23°C (89% RH)
QNH1010 hPa
Density Alt1,867 ft
Elevation194 ft
Report Wrong Elevation
Raw Report
METAR KPTB 240035Z AUTO 24003KT 10SM BKN120 25/23 A2983 RMK AO2 T02530233=

Extra information for KPTB:More info

Metar Taf Metar & Taf Last 4 Metars F.Rules Stats Wind Profile Meteogram Temp Stats Airport Information Weather charts Add Link Nearby VenuesMetar ALERT Operation Metar Decoded Social comments

AIRNAV info for KPTB